Time;durP1;ratioP1;P1;durP2;ratioP2;P2;SDS_P1;SDS_P2;PMS_P1;PMS_P2;Temp;Humidity;BMP_temperature;BMP_pressure;BME280_temperature;BME280_humidity;BME280_pressure;Samples;Min_cycle;Max_cycle;Signal;HPM_P1;HPM_P2
2022/04/05 00:00:00;;;;;;;4.72;1.65;;;;;;;14.89;42.26;96620.34;5137116;27;20022;-32
2022/04/05 00:02:26;;;;;;;2.55;1.45;;;;;;;14.84;42.13;96614.69;5136548;27;20403;-31
2022/04/05 00:04:51;;;;;;;3.88;1.73;;;;;;;14.94;42.09;96610.81;5136744;27;20063;-32
2022/04/05 00:07:18;;;;;;;2.38;1.40;;;;;;;14.91;41.78;96611.72;5136646;27;20106;-31
2022/04/05 00:09:44;;;;;;;3.42;1.55;;;;;;;14.90;42.26;96604.72;5136508;27;20029;-31
2022/04/05 00:12:09;;;;;;;2.25;1.20;;;;;;;14.84;41.99;96601.81;5136618;27;20022;-31
2022/04/05 00:14:35;;;;;;;3.75;1.45;;;;;;;14.84;41.96;96599.06;5136539;27;20090;-31
2022/04/05 00:17:02;;;;;;;3.78;1.45;;;;;;;14.76;42.25;96595.13;5117926;27;20072;-31
2022/04/05 00:19:28;;;;;;;2.25;1.40;;;;;;;14.80;42.09;96603.19;5136602;27;20019;-31
2022/04/05 00:21:54;;;;;;;3.00;1.52;;;;;;;14.86;42.13;96598.63;5136461;27;20033;-31
2022/04/05 00:24:20;;;;;;;2.70;1.40;;;;;;;14.78;42.24;96595.44;5117916;27;20027;-31
2022/04/05 00:26:45;;;;;;;2.72;1.27;;;;;;;14.85;42.04;96592.41;5136458;27;20019;-31
2022/04/05 00:29:11;;;;;;;2.33;1.02;;;;;;;14.82;42.09;96587.09;5136121;27;20503;-31
2022/04/05 00:31:36;;;;;;;2.50;1.52;;;;;;;14.87;41.79;96592.72;5136192;27;20023;-32
2022/04/05 00:34:02;;;;;;;1.52;1.10;;;;;;;14.81;41.98;96585.59;5136222;27;20478;-31
2022/04/05 00:36:29;;;;;;;3.03;1.35;;;;;;;14.85;41.97;96586.19;5136092;27;20023;-31
2022/04/05 00:38:56;;;;;;;1.98;1.20;;;;;;;14.82;41.94;96576.19;5136054;27;20030;-31
2022/04/05 00:41:21;;;;;;;2.25;1.17;;;;;;;14.77;42.02;96585.72;5136025;27;20019;-31
2022/04/05 00:43:47;;;;;;;2.53;0.90;;;;;;;14.78;42.08;96578.28;5135793;27;20534;-31
2022/04/05 00:46:12;;;;;;;2.20;1.25;;;;;;;14.77;41.93;96576.75;5135953;27;20461;-31
2022/04/05 00:48:50;;;;;;;2.78;1.50;;;;;;;14.76;41.88;96569.78;5135902;27;20023;-31
2022/04/05 00:51:18;;;;;;;1.95;1.27;;;;;;;14.78;42.09;96572.81;5117277;27;20497;-31
2022/04/05 00:53:49;;;;;;;3.45;1.42;;;;;;;14.76;42.09;96569.78;5135739;27;20033;-31
2022/04/05 00:56:16;;;;;;;2.13;1.30;;;;;;;14.74;41.82;96565.53;5135860;27;20446;-31
2022/04/05 00:58:46;;;;;;;2.08;1.20;;;;;;;14.77;41.78;96560.38;5129064;27;20020;-31
2022/04/05 01:01:16;;;;;;;4.20;1.33;;;;;;;14.73;41.91;96558.53;5113559;28;20046;-32
2022/04/05 01:03:48;;;;;;;2.55;1.20;;;;;;;14.71;41.72;96550.03;5114754;28;20096;-31
2022/04/05 01:06:19;;;;;;;1.35;0.90;;;;;;;14.76;41.81;96556.91;5096689;28;20058;-31
2022/04/05 01:08:46;;;;;;;1.63;1.15;;;;;;;14.79;41.80;96556.00;5115068;28;20019;-32
2022/04/05 01:11:13;;;;;;;2.47;1.30;;;;;;;14.77;41.67;96546.72;5115038;28;20024;-31
2022/04/05 01:13:39;;;;;;;2.80;1.00;;;;;;;14.80;41.76;96545.84;5115354;28;20114;-31
2022/04/05 01:16:06;;;;;;;1.85;0.90;;;;;;;14.70;41.72;96548.56;5114706;28;20100;-31
2022/04/05 01:18:33;;;;;;;3.60;1.20;;;;;;;14.70;41.80;96537.63;5096510;28;20041;-31
2022/04/05 01:20:59;;;;;;;1.70;1.10;;;;;;;14.70;41.62;96540.34;5114440;28;20495;-31
2022/04/05 01:23:25;;;;;;;2.63;1.20;;;;;;;14.69;41.93;96536.09;5114750;28;20034;-32
2022/04/05 01:25:52;;;;;;;2.20;0.98;;;;;;;14.73;41.59;96535.94;5114497;28;20019;-31
2022/04/05 01:28:19;;;;;;;1.67;1.17;;;;;;;14.70;41.71;96532.16;5114528;28;20535;-31
2022/04/05 01:30:44;;;;;;;2.83;1.15;;;;;;;14.64;42.05;96533.97;5114721;28;20070;-31
2022/04/05 01:33:10;;;;;;;2.45;1.20;;;;;;;14.66;41.63;96530.78;5114430;28;20482;-32
2022/04/05 01:35:36;;;;;;;2.97;0.98;;;;;;;14.65;41.80;96524.56;5114574;28;20043;-31
2022/04/05 01:38:02;;;;;;;2.03;1.20;;;;;;;14.68;41.82;96512.75;5114223;28;20494;-31
2022/04/05 01:40:28;;;;;;;1.65;1.10;;;;;;;14.70;41.87;96517.75;5114356;28;20020;-32
2022/04/05 01:42:53;;;;;;;2.88;1.08;;;;;;;14.64;41.83;96512.13;5114421;28;20016;-31
2022/04/05 01:45:21;;;;;;;1.70;0.90;;;;;;;14.67;41.46;96521.38;5114295;28;20027;-31
2022/04/05 01:47:47;;;;;;;3.55;0.80;;;;;;;14.66;41.58;96515.16;5114065;28;20047;-31
2022/04/05 01:50:13;;;;;;;1.48;0.80;;;;;;;14.68;41.62;96514.72;5114317;28;20379;-31
2022/04/05 01:52:38;;;;;;;2.42;1.00;;;;;;;14.66;41.92;96504.25;5095775;28;20063;-31
2022/04/05 01:55:06;;;;;;;1.65;1.00;;;;;;;14.68;41.64;96510.03;5114033;28;20020;-31
2022/04/05 01:57:31;;;;;;;2.50;1.02;;;;;;;14.61;41.81;96504.06;5113543;28;20383;-31
2022/04/05 01:59:58;;;;;;;1.80;1.08;;;;;;;14.61;41.79;96502.09;5114205;28;20027;-31
2022/04/05 02:02:24;;;;;;;1.42;0.73;;;;;;;14.60;41.72;96500.56;5113696;28;20067;-31
2022/04/05 02:04:49;;;;;;;1.77;1.20;;;;;;;14.62;41.69;96511.81;5113977;28;20028;-31
2022/04/05 02:07:19;;;;;;;1.55;0.98;;;;;;;14.61;41.68;96507.56;5113791;28;20047;-31
2022/04/05 02:09:47;;;;;;;3.22;0.95;;;;;;;14.56;41.70;96505.44;5114002;28;20027;-31
2022/04/05 02:12:12;;;;;;;2.10;1.20;;;;;;;14.64;41.81;96508.63;5113832;28;20030;-31
2022/04/05 02:14:39;;;;;;;2.22;1.02;;;;;;;14.68;41.56;96510.03;5113711;28;20019;-31
2022/04/05 02:17:05;;;;;;;1.60;0.90;;;;;;;14.62;41.95;96502.84;5113791;28;20023;-31
2022/04/05 02:19:31;;;;;;;2.10;1.00;;;;;;;14.60;41.68;96503.31;5114135;28;20076;-32
2022/04/05 02:21:57;;;;;;;2.22;1.08;;;;;;;14.61;41.68;96502.09;5113637;28;20397;-32
2022/04/05 02:24:25;;;;;;;2.83;1.05;;;;;;;14.59;41.60;96507.25;5113963;28;20110;-31
2022/04/05 02:26:51;;;;;;;2.80;1.17;;;;;;;14.63;41.58;96504.38;5095478;28;20447;-31
2022/04/05 02:29:17;;;;;;;1.30;0.90;;;;;;;14.62;41.57;96500.13;5113675;28;20019;-31
2022/04/05 02:31:43;;;;;;;1.17;0.70;;;;;;;14.59;41.71;96506.47;5113675;28;20076;-31
2022/04/05 02:34:09;;;;;;;2.45;0.90;;;;;;;14.60;41.46;96500.56;5113751;28;20357;-31
2022/04/05 02:36:35;;;;;;;1.95;0.90;;;;;;;14.57;41.83;96496.03;5113602;28;20024;-31
2022/04/05 02:39:01;;;;;;;2.65;1.00;;;;;;;14.65;41.59;96496.50;5113457;28;20049;-31
2022/04/05 02:41:27;;;;;;;2.83;0.98;;;;;;;14.62;41.60;96498.16;5113718;28;20030;-31
2022/04/05 02:43:53;;;;;;;1.70;0.93;;;;;;;14.59;41.64;96499.06;5113436;28;20023;-31
2022/04/05 02:46:25;;;;;;;2.10;0.80;;;;;;;14.64;41.67;96498.47;5113582;28;20027;-31
2022/04/05 02:48:54;;;;;;;2.63;0.82;;;;;;;14.61;41.78;96495.88;5113516;28;20016;-31
2022/04/05 02:51:20;;;;;;;3.28;1.08;;;;;;;14.54;41.63;96496.94;5113490;28;20023;-32
2022/04/05 02:53:46;;;;;;;1.83;1.02;;;;;;;14.56;41.83;96483.59;5113547;28;20028;-31
2022/04/05 02:56:13;;;;;;;1.27;0.85;;;;;;;14.62;41.52;96494.66;5113509;28;20030;-32
2022/04/05 02:58:38;;;;;;;2.72;1.10;;;;;;;14.56;41.72;96497.25;5113280;28;20027;-31
2022/04/05 03:01:10;;;;;;;1.23;0.82;;;;;;;14.56;41.69;96489.06;5113334;28;20142;-32
2022/04/05 03:03:35;;;;;;;3.00;1.10;;;;;;;14.55;41.83;96486.78;5113062;28;20531;-32
2022/04/05 03:06:02;;;;;;;2.75;1.00;;;;;;;14.56;41.58;96489.06;5113371;28;20107;-31
2022/04/05 03:08:28;;;;;;;1.63;0.80;;;;;;;14.58;41.49;96491.34;5113675;28;20384;-31
2022/04/05 03:10:54;;;;;;;1.60;1.23;;;;;;;14.55;41.43;96486.78;5117126;28;20034;-31
2022/04/05 03:13:20;;;;;;;1.80;0.90;;;;;;;14.58;41.59;96491.34;5117231;28;20106;-31
2022/04/05 03:15:46;;;;;;;2.45;1.10;;;;;;;14.59;41.88;96488.13;5117082;28;20026;-31
2022/04/05 03:18:12;;;;;;;2.55;1.05;;;;;;;14.58;41.64;96486.66;5117122;28;20095;-31
2022/04/05 03:20:37;;;;;;;1.85;1.13;;;;;;;14.50;41.96;96485.38;5117065;28;20027;-32
2022/04/05 03:23:04;;;;;;;1.88;0.82;;;;;;;14.52;41.88;96487.66;5117186;28;20550;-31
2022/04/05 03:25:30;;;;;;;2.00;1.02;;;;;;;14.53;41.78;96491.91;5116822;28;20027;-32
2022/04/05 03:27:55;;;;;;;2.47;1.10;;;;;;;14.54;41.79;96479.81;5117009;28;20057;-31
2022/04/05 03:30:22;;;;;;;1.92;1.00;;;;;;;14.53;41.82;96481.00;5116941;28;20025;-31
2022/04/05 03:32:49;;;;;;;2.95;1.02;;;;;;;14.52;41.84;96477.53;5117050;28;20532;-31
2022/04/05 03:35:14;;;;;;;1.85;0.95;;;;;;;14.52;41.81;96479.47;5116860;28;20391;-31
2022/04/05 03:37:41;;;;;;;2.08;1.23;;;;;;;14.50;41.58;96476.44;5116524;28;20020;-31
2022/04/05 03:40:07;;;;;;;2.33;1.08;;;;;;;14.51;41.73;96470.53;5116645;28;20030;-31
2022/04/05 03:42:33;;;;;;;1.80;1.10;;;;;;;14.49;41.60;96470.22;5116485;28;20024;-31
2022/04/05 03:44:59;;;;;;;2.50;1.05;;;;;;;14.51;41.43;96473.28;5116654;28;20027;-31
2022/04/05 03:47:27;;;;;;;3.25;1.10;;;;;;;14.49;41.59;96477.66;5116636;28;20020;-31
2022/04/05 03:49:52;;;;;;;2.85;1.20;;;;;;;14.47;41.61;96480.06;5116382;28;20043;-31
2022/04/05 03:52:19;;;;;;;1.33;1.00;;;;;;;14.49;41.62;96481.13;5116425;28;20023;-31
2022/04/05 03:54:44;;;;;;;3.30;1.38;;;;;;;14.51;41.80;96475.22;5116343;28;20102;-31
2022/04/05 03:57:10;;;;;;;3.13;1.38;;;;;;;14.49;41.56;96475.69;5116302;28;20107;-31
2022/04/05 03:59:35;;;;;;;1.98;1.10;;;;;;;14.50;41.47;96479.94;5116250;28;20052;-32
2022/04/05 04:02:01;;;;;;;1.92;1.15;;;;;;;14.47;41.61;96475.38;5116473;28;20099;-31
2022/04/05 04:04:27;;;;;;;2.28;1.13;;;;;;;14.45;41.74;96479.78;5116146;28;20092;-33
2022/04/05 04:06:52;;;;;;;2.70;1.60;;;;;;;14.48;41.61;96479.63;5116238;28;20038;-32
2022/04/05 04:09:18;;;;;;;3.58;1.40;;;;;;;14.48;41.71;96478.84;5116289;28;20379;-31
2022/04/05 04:11:44;;;;;;;1.52;1.10;;;;;;;14.45;41.50;96479.78;5097960;28;20019;-31
2022/04/05 04:14:11;;;;;;;2.28;1.38;;;;;;;14.47;41.99;96480.81;5116016;28;20016;-31
2022/04/05 04:16:36;;;;;;;1.60;1.10;;;;;;;14.43;41.85;96480.22;5116082;28;20456;-32
2022/04/05 04:19:03;;;;;;;2.90;1.40;;;;;;;14.41;41.86;96479.91;5115748;28;20030;-31
2022/04/05 04:21:28;;;;;;;2.50;1.20;;;;;;;14.46;41.77;96484.78;5115135;28;20024;-31
2022/04/05 04:23:54;;;;;;;2.42;1.35;;;;;;;14.41;42.09;96477.19;5115782;28;20031;-32
2022/04/05 04:26:20;;;;;;;2.35;1.15;;;;;;;14.48;41.83;96484.31;5115861;28;20528;-31
2022/04/05 04:28:49;;;;;;;2.75;1.20;;;;;;;14.41;41.74;96488.09;5115838;28;20069;-31
2022/04/05 04:31:14;;;;;;;2.47;1.20;;;;;;;14.44;41.72;96498.13;5115614;28;20110;-31
2022/04/05 04:33:40;;;;;;;2.75;1.35;;;;;;;14.43;41.75;96493.09;5115724;28;20051;-31
2022/04/05 04:36:06;;;;;;;1.58;1.10;;;;;;;14.46;41.35;96484.78;5097244;28;20471;-32
2022/04/05 04:38:31;;;;;;;2.55;1.52;;;;;;;14.39;42.01;96479.56;5115616;28;20028;-31
2022/04/05 04:40:57;;;;;;;3.28;1.50;;;;;;;14.41;42.05;96490.06;5115397;28;20027;-31
2022/04/05 04:43:24;;;;;;;2.70;1.50;;;;;;;14.41;41.71;96482.63;5115314;28;20419;-31
2022/04/05 04:45:56;;;;;;;1.95;1.15;;;;;;;14.38;41.97;96489.72;5115310;28;20110;-31
2022/04/05 04:48:22;;;;;;;2.17;1.30;;;;;;;14.46;41.68;96489.50;5115297;28;20015;-31
2022/04/05 04:50:48;;;;;;;2.63;1.35;;;;;;;14.42;41.73;96494.31;5115453;28;20098;-31
2022/04/05 04:53:14;;;;;;;2.55;1.50;;;;;;;14.37;41.83;96484.72;5115155;28;20375;-32
2022/04/05 04:55:39;;;;;;;3.20;1.30;;;;;;;14.46;41.43;96490.25;5115178;28;20019;-32
2022/04/05 04:58:05;;;;;;;4.63;2.10;;;;;;;14.43;41.52;96491.13;5115213;28;20057;-31
2022/04/05 05:00:30;;;;;;;2.25;1.33;;;;;;;14.45;41.73;96487.97;5115045;28;20026;-31
2022/04/05 05:02:56;;;;;;;2.55;1.10;;;;;;;14.40;41.51;96492.03;5114954;28;20043;-31
2022/04/05 05:05:22;;;;;;;2.45;1.42;;;;;;;14.38;41.68;96497.16;5114917;28;20027;-31
2022/04/05 05:07:50;;;;;;;2.70;1.35;;;;;;;14.38;41.48;96494.41;5115037;28;20027;-31
2022/04/05 05:10:16;;;;;;;3.13;1.20;;;;;;;14.36;41.88;96496.81;5114896;28;20020;-31
2022/04/05 05:12:42;;;;;;;1.85;1.15;;;;;;;14.29;42.11;96495.16;5115020;28;20020;-33
2022/04/05 05:15:17;;;;;;;3.53;1.33;;;;;;;14.39;41.80;96495.94;5115164;28;20097;-31
2022/04/05 05:17:45;;;;;;;2.00;1.40;;;;;;;14.33;42.12;96497.75;5114814;28;20475;-31
2022/04/05 05:20:11;;;;;;;2.95;1.58;;;;;;;14.36;41.68;96502.28;5114778;28;20031;-31
2022/04/05 05:22:39;;;;;;;2.70;1.40;;;;;;;14.38;41.66;96505.34;5114588;28;20028;-31
2022/04/05 05:25:05;;;;;;;2.78;1.33;;;;;;;14.35;41.52;96508.94;5114641;28;20382;-31
2022/04/05 05:27:31;;;;;;;4.10;1.40;;;;;;;14.38;41.77;96502.59;5114686;28;20044;-31
2022/04/05 05:29:56;;;;;;;2.72;1.33;;;;;;;14.41;41.92;96504.47;5114580;28;20498;-31
2022/04/05 05:32:22;;;;;;;2.58;1.33;;;;;;;14.31;42.16;96505.63;5113638;28;20027;-31
2022/04/05 05:34:48;;;;;;;4.25;1.40;;;;;;;14.36;41.87;96505.00;5114444;28;20019;-32
2022/04/05 05:37:13;;;;;;;3.97;2.03;;;;;;;14.37;41.56;96512.75;5114424;28;20481;-31
2022/04/05 05:39:39;;;;;;;2.03;1.33;;;;;;;14.36;41.93;96508.50;5096407;28;20027;-31
2022/04/05 05:42:06;;;;;;;2.58;1.48;;;;;;;14.36;41.80;96513.19;5117705;27;20490;-31
2022/04/05 05:44:32;;;;;;;3.55;1.70;;;;;;;14.38;42.07;96508.06;5107526;27;20479;-31
2022/04/05 05:46:58;;;;;;;3.90;1.10;;;;;;;14.42;41.47;96511.44;5132953;27;20031;-31
2022/04/05 05:49:24;;;;;;;2.10;1.23;;;;;;;14.38;41.89;96510.78;5112240;28;20027;-33
2022/04/05 05:51:50;;;;;;;2.85;1.60;;;;;;;14.36;41.71;96513.19;5112367;28;20483;-32
2022/04/05 05:54:16;;;;;;;2.83;1.40;;;;;;;14.37;41.51;96512.75;5111847;28;20467;-31
2022/04/05 05:56:42;;;;;;;2.80;1.23;;;;;;;14.37;41.58;96507.31;5112258;28;20065;-31
2022/04/05 05:59:09;;;;;;;2.28;1.30;;;;;;;14.37;41.83;96503.81;5112027;28;20055;-32
2022/04/05 06:01:34;;;;;;;3.90;1.58;;;;;;;14.46;41.63;96503.13;5112054;28;20027;-31
2022/04/05 06:04:00;;;;;;;3.08;1.23;;;;;;;14.38;41.87;96505.34;5111752;28;20058;-31
2022/04/05 06:06:25;;;;;;;2.40;1.30;;;;;;;14.37;42.03;96501.84;5111728;28;20024;-32
2022/04/05 06:08:51;;;;;;;2.60;1.40;;;;;;;14.39;41.78;96501.41;5112084;28;20028;-31
2022/04/05 06:11:16;;;;;;;2.58;1.38;;;;;;;14.35;42.10;96500.75;5112089;28;20072;-32
2022/04/05 06:13:42;;;;;;;3.13;1.60;;;;;;;14.38;42.04;96505.34;5111927;28;20515;-31
2022/04/05 06:16:10;;;;;;;3.78;1.30;;;;;;;14.34;42.16;96510.19;5111922;28;20024;-31
2022/04/05 06:18:35;;;;;;;2.83;1.40;;;;;;;14.36;41.98;96513.19;5111647;28;20062;-31
2022/04/05 06:21:01;;;;;;;2.22;1.50;;;;;;;14.37;41.97;96514.72;5111761;28;20056;-31
2022/04/05 06:23:26;;;;;;;2.08;1.40;;;;;;;14.29;42.32;96516.97;5109976;28;20020;-31
2022/04/05 06:25:52;;;;;;;2.33;1.25;;;;;;;14.40;41.77;96513.84;5111793;28;20031;-31
2022/04/05 06:28:18;;;;;;;2.97;1.23;;;;;;;14.31;42.26;96520.03;5111250;28;20474;-31
2022/04/05 06:30:46;;;;;;;1.77;1.23;;;;;;;14.37;41.90;96522.91;5111244;28;20110;-31
2022/04/05 06:33:16;;;;;;;4.68;1.63;;;;;;;14.35;41.94;96523.34;5111800;28;20039;-31
2022/04/05 06:35:44;;;;;;;2.88;1.50;;;;;;;14.33;42.00;96520.34;5111835;28;20085;-31
2022/04/05 06:38:09;;;;;;;4.03;1.42;;;;;;;14.33;42.25;96511.38;5132306;28;20094;-31
2022/04/05 06:40:35;;;;;;;3.63;1.75;;;;;;;14.31;42.20;96522.00;5132172;28;20196;-31
2022/04/05 06:43:00;;;;;;;3.25;1.50;;;;;;;14.41;42.13;96520.84;5113294;28;20038;-31
2022/04/05 06:45:27;;;;;;;3.60;1.77;;;;;;;14.37;42.41;96525.63;5135568;27;20026;-31
2022/04/05 06:47:53;;;;;;;2.80;1.58;;;;;;;14.36;42.62;96518.66;5136353;27;20104;-32
2022/04/05 06:50:24;;;;;;;5.35;1.98;;;;;;;14.33;42.79;96520.34;5136190;27;20379;-31
2022/04/05 06:52:51;;;;;;;4.22;1.50;;;;;;;14.27;42.88;96518.63;5135693;27;20484;-31
2022/04/05 06:55:16;;;;;;;4.40;2.00;;;;;;;14.34;42.62;96513.66;5136087;27;20030;-31
2022/04/05 06:57:42;;;;;;;2.65;1.70;;;;;;;14.37;42.86;96514.72;5135898;27;20027;-31
2022/04/05 07:00:09;;;;;;;3.58;1.60;;;;;;;14.32;43.26;96523.50;5136360;27;20099;-31
2022/04/05 07:02:35;;;;;;;2.58;1.42;;;;;;;14.25;43.52;96513.63;5131195;27;20390;-31
2022/04/05 07:05:02;;;;;;;2.88;1.50;;;;;;;14.33;43.42;96514.88;5115314;28;20024;-31
2022/04/05 07:07:27;;;;;;;3.90;1.65;;;;;;;14.25;43.32;96518.31;5115486;28;20498;-31
2022/04/05 07:09:52;;;;;;;3.30;2.22;;;;;;;14.28;43.32;96509.22;5115313;28;20035;-31
2022/04/05 07:12:18;;;;;;;4.38;1.65;;;;;;;14.37;43.39;96509.25;5114360;28;20475;-31
2022/04/05 07:14:44;;;;;;;4.72;1.55;;;;;;;14.36;43.31;96513.97;5114525;28;20019;-31
2022/04/05 07:17:10;;;;;;;2.35;1.40;;;;;;;14.34;43.55;96513.66;5114538;28;20088;-31
2022/04/05 07:19:35;;;;;;;2.47;1.60;;;;;;;14.29;43.51;96499.84;5115046;28;20027;-31
2022/04/05 07:22:02;;;;;;;2.80;1.50;;;;;;;14.36;43.64;96507.75;5113306;28;20024;-31
2022/04/05 07:24:28;;;;;;;2.83;1.75;;;;;;;14.33;43.25;96503.22;5115122;28;20482;-31
2022/04/05 07:26:55;;;;;;;4.65;2.28;;;;;;;14.40;43.48;96502.19;5113696;28;20096;-31
2022/04/05 07:29:20;;;;;;;2.90;1.25;;;;;;;14.40;43.23;96507.66;5114662;27;20125;-31
2022/04/05 07:31:46;;;;;;;2.53;1.50;;;;;;;14.34;43.36;96502.00;5114557;28;20507;-31
2022/04/05 07:34:12;;;;;;;2.88;1.73;;;;;;;14.41;43.52;96514.63;5114549;28;20514;-31
2022/04/05 07:36:37;;;;;;;3.25;1.73;;;;;;;14.37;43.48;96510.03;5106892;28;20031;-32
2022/04/05 07:39:03;;;;;;;3.45;1.50;;;;;;;14.36;43.50;96507.75;5094312;28;20069;-33
2022/04/05 07:41:29;;;;;;;3.35;1.70;;;;;;;14.28;43.65;96511.97;5093977;28;20028;-31
2022/04/05 07:43:54;;;;;;;2.97;1.42;;;;;;;14.33;43.73;96511.38;5094242;28;20031;-32
2022/04/05 07:46:20;;;;;;;1.73;1.45;;;;;;;14.24;43.96;96509.38;5094067;28;20123;-31
2022/04/05 07:48:48;;;;;;;2.80;1.75;;;;;;;14.36;43.54;96508.50;5104422;28;20034;-32
2022/04/05 07:51:15;;;;;;;3.92;1.52;;;;;;;14.38;43.32;96506.09;5095898;28;20499;-31
2022/04/05 07:53:41;;;;;;;2.42;1.58;;;;;;;14.42;43.54;96511.44;5095236;28;20034;-31
2022/04/05 07:56:07;;;;;;;4.85;2.40;;;;;;;14.34;43.90;96510.91;5103347;28;20020;-31
2022/04/05 07:58:33;;;;;;;2.88;1.38;;;;;;;13.98;45.03;96513.47;5114839;28;20023;-30
2022/04/05 08:00:58;;;;;;;3.80;2.10;;;;;;;13.19;49.14;96510.06;5114390;28;20104;-30
2022/04/05 08:03:24;;;;;;;5.40;2.38;;;;;;;13.62;48.10;96514.00;5127826;27;20462;-31
2022/04/05 08:05:49;;;;;;;3.95;1.90;;;;;;;13.86;47.30;96506.91;5136913;27;20030;-30
2022/04/05 08:08:15;;;;;;;4.75;1.77;;;;;;;14.07;46.79;96513.53;5136864;27;20026;-31
2022/04/05 08:10:41;;;;;;;5.18;2.08;;;;;;;14.18;46.20;96513.91;5136746;27;20038;-30
2022/04/05 08:13:07;;;;;;;4.55;1.70;;;;;;;14.23;45.84;96518.00;5136833;27;20055;-31
2022/04/05 08:15:32;;;;;;;5.43;1.80;;;;;;;14.20;46.07;96522.41;5136501;27;20103;-32
2022/04/05 08:17:58;;;;;;;3.38;1.90;;;;;;;14.22;46.07;96522.69;5136441;27;20031;-30
2022/04/05 08:20:24;;;;;;;3.30;1.77;;;;;;;14.28;45.54;96525.59;5136079;27;20016;-30
2022/04/05 08:22:50;;;;;;;2.88;2.00;;;;;;;14.21;45.83;96525.88;5135817;27;20132;-31
2022/04/05 08:25:17;;;;;;;6.40;2.17;;;;;;;14.09;45.40;96529.47;5125369;27;20027;-31
2022/04/05 08:27:46;;;;;;;3.17;1.58;;;;;;;14.29;45.13;96525.16;5135923;27;20439;-30
2022/04/05 08:30:15;;;;;;;3.90;2.47;;;;;;;14.05;45.16;96534.28;5136449;27;20475;-30
2022/04/05 08:32:42;;;;;;;3.75;1.70;;;;;;;14.12;45.49;96531.28;5136243;27;20023;-31
2022/04/05 08:35:10;;;;;;;4.63;2.28;;;;;;;13.47;43.95;96532.09;5136513;27;20099;-30
2022/04/05 08:37:36;;;;;;;3.88;2.10;;;;;;;13.82;45.20;96530.81;5118012;27;20471;-30
2022/04/05 08:40:06;;;;;;;9.00;2.83;;;;;;;13.66;45.23;96531.00;5136057;27;20023;-30
2022/04/05 08:42:39;;;;;;;3.42;2.15;;;;;;;14.22;44.79;96533.59;5136032;27;20383;-31
2022/04/05 08:45:10;;;;;;;4.07;1.90;;;;;;;14.25;44.34;96540.13;5136260;27;20030;-31
2022/04/05 08:47:38;;;;;;;7.43;2.13;;;;;;;14.28;44.70;96545.47;5136003;27;20027;-31
2022/04/05 08:50:05;;;;;;;5.05;2.30;;;;;;;14.17;43.74;96544.34;5135980;27;20023;-32
2022/04/05 08:52:31;;;;;;;8.73;3.10;;;;;;;13.86;44.83;96550.50;5117501;27;20448;-30
2022/04/05 08:54:56;;;;;;;4.47;2.30;;;;;;;13.98;44.42;96533.31;5135847;27;20094;-31
2022/04/05 08:57:22;;;;;;;4.57;2.30;;;;;;;14.19;43.74;96541.94;5117300;27;20030;-32
2022/04/05 08:59:48;;;;;;;3.92;2.47;;;;;;;14.32;43.35;96548.06;5135708;27;20019;-31
2022/04/05 09:02:14;;;;;;;4.65;2.30;;;;;;;14.38;43.86;96548.97;5135267;27;20023;-31
2022/04/05 09:04:40;;;;;;;3.25;2.05;;;;;;;14.30;43.37;96553.19;5117508;27;20430;-30
2022/04/05 09:07:30;;;;;;;4.18;2.30;;;;;;;14.19;42.85;96552.84;5135316;27;20034;-33
2022/04/05 09:10:13;;;;;;;6.38;2.58;;;;;;;14.23;42.00;96551.50;5123665;27;20111;-31
2022/04/05 09:12:48;;;;;;;;;;;;;;;13.96;39.14;96545.91;5135931;27;20030;-30
2022/04/05 09:15:16;;;;;;;4.00;1.88;;;;;;;14.00;42.41;96541.06;5135268;27;19911;-31
2022/04/05 09:17:45;;;;;;;2.17;1.80;;;;;;;14.27;42.74;96549.41;5135213;27;20034;-31
2022/04/05 09:20:12;;;;;;;4.47;1.67;;;;;;;14.25;41.81;96546.34;5135473;27;20025;-30
2022/04/05 09:22:37;;;;;;;4.25;2.13;;;;;;;14.18;41.12;96537.69;5135164;27;20056;-30
2022/04/05 09:25:09;;;;;;;4.07;2.25;;;;;;;14.24;43.09;96539.38;5116897;27;20048;-30
2022/04/05 09:27:49;;;;;;;3.55;1.77;;;;;;;14.38;42.84;96538.06;5135244;27;20364;-31
2022/04/05 09:30:17;;;;;;;2.60;1.90;;;;;;;14.20;42.64;96544.22;5135202;27;20027;-30
2022/04/05 09:32:47;;;;;;;3.40;1.75;;;;;;;14.39;42.79;96534.13;5135225;27;20023;-31
2022/04/05 09:35:13;;;;;;;3.00;1.70;;;;;;;14.49;42.51;96534.97;5135091;27;20405;-31
2022/04/05 09:37:39;;;;;;;2.05;1.70;;;;;;;14.50;42.20;96533.75;5134699;27;20043;-31
2022/04/05 09:40:34;;;;;;;3.80;2.00;;;;;;;14.45;42.66;96529.66;5135009;27;20070;-31
2022/04/05 09:43:13;;;;;;;3.13;1.70;;;;;;;14.47;42.38;96529.19;5117491;27;20428;-30
2022/04/05 09:46:00;;;;;;;3.78;1.70;;;;;;;14.21;42.23;96534.06;5134771;27;20015;-31
2022/04/05 09:48:35;;;;;;;4.72;1.83;;;;;;;14.40;42.38;96530.22;5111986;27;20051;-31
2022/04/05 09:51:14;;;;;;;5.05;1.88;;;;;;;14.39;42.06;96528.69;5113880;28;20026;-30
2022/04/05 09:53:40;;;;;;;4.72;1.92;;;;;;;14.50;41.78;96537.25;5114434;28;20492;-31
2022/04/05 09:56:07;;;;;;;4.65;1.98;;;;;;;14.50;41.79;96541.94;5113983;28;20062;-31
2022/04/05 09:58:34;;;;;;;2.90;1.40;;;;;;;14.50;42.04;96550.13;5114011;28;20027;-31
2022/04/05 10:01:11;;;;;;;5.40;2.45;;;;;;;14.51;41.67;96546.19;5114242;28;20043;-32
2022/04/05 10:03:42;;;;;;;2.60;1.70;;;;;;;14.52;41.62;96548.47;5113690;28;20111;-31
2022/04/05 10:06:16;;;;;;;2.38;1.52;;;;;;;14.46;41.91;96547.56;5114062;28;20020;-30
2022/04/05 10:08:42;;;;;;;3.03;1.70;;;;;;;14.47;41.80;96532.66;5113968;28;20027;-31
2022/04/05 10:11:08;;;;;;;3.25;1.80;;;;;;;14.52;41.59;96542.25;5113763;28;20019;-31
2022/04/05 10:13:33;;;;;;;2.55;1.77;;;;;;;14.56;41.34;96538.19;5113728;28;20440;-30
2022/04/05 10:16:00;;;;;;;2.97;1.63;;;;;;;14.65;41.32;96538.22;5113757;28;20527;-31
2022/04/05 10:18:32;;;;;;;2.10;1.63;;;;;;;14.51;41.70;96533.31;5094909;28;20088;-30
2022/04/05 10:20:59;;;;;;;2.88;1.70;;;;;;;14.55;41.55;96531.22;5113878;28;20080;-31
2022/04/05 10:23:25;;;;;;;2.88;1.73;;;;;;;14.54;41.39;96528.91;5113806;28;20379;-31
2022/04/05 10:25:52;;;;;;;4.43;2.42;;;;;;;14.60;41.13;96521.66;5113779;28;20039;-32
2022/04/05 10:28:22;;;;;;;3.00;1.83;;;;;;;14.56;41.29;96524.53;5113598;28;20024;-31
2022/04/05 10:31:00;;;;;;;2.10;1.67;;;;;;;14.61;41.19;96531.34;5114277;28;20112;-31
2022/04/05 10:33:41;;;;;;;4.28;1.95;;;;;;;14.49;41.16;96527.53;5113752;28;20471;-31
2022/04/05 10:36:08;;;;;;;4.72;2.35;;;;;;;14.51;41.38;96522.38;5113590;28;20035;-31
2022/04/05 10:38:34;;;;;;;2.65;1.70;;;;;;;14.59;41.19;96520.88;5113580;28;20020;-30
2022/04/05 10:41:20;;;;;;;2.08;1.60;;;;;;;14.57;41.26;96522.56;5113963;28;20019;-31
2022/04/05 10:44:03;;;;;;;3.72;1.63;;;;;;;14.59;41.22;96522.84;5113627;28;20019;-31
2022/04/05 10:46:39;;;;;;;;;;;;;;;14.52;41.46;96520.41;5095782;28;20386;-30
2022/04/05 10:49:07;;;;;;;2.58;1.63;;;;;;;14.56;41.06;96521.06;5095379;28;20324;-30
2022/04/05 10:52:12;;;;;;;3.22;1.80;;;;;;;14.56;41.12;96521.06;5113590;28;20028;-30
2022/04/05 10:54:41;;;;;;;3.10;1.90;;;;;;;14.60;41.16;96510.72;5113631;28;20055;-31
2022/04/05 10:57:19;;;;;;;3.17;1.92;;;;;;;14.64;41.18;96512.13;5113339;28;20536;-31
2022/04/05 10:59:56;;;;;;;3.97;2.03;;;;;;;14.63;40.86;96516.06;5113424;28;20031;-31
2022/04/05 11:02:39;;;;;;;4.15;1.83;;;;;;;14.56;41.11;96508.16;5094945;28;20490;-32
2022/04/05 11:05:14;;;;;;;3.00;1.80;;;;;;;14.54;41.20;96501.63;5114080;28;20030;-30
2022/04/05 11:07:52;;;;;;;2.90;1.90;;;;;;;14.61;40.87;96502.09;5113426;28;20051;-31
2022/04/05 11:10:25;;;;;;;3.63;1.70;;;;;;;14.66;40.95;96498.03;5113514;28;20110;-32
2022/04/05 11:13:03;;;;;;;3.00;1.65;;;;;;;14.64;40.59;96484.81;5113309;28;20069;-30
2022/04/05 11:15:39;;;;;;;3.95;1.85;;;;;;;14.59;40.89;96499.06;5113553;28;20024;-30
2022/04/05 11:18:05;;;;;;;2.75;1.80;;;;;;;14.57;40.98;96498.78;5113242;28;20048;-31
2022/04/05 11:20:31;;;;;;;2.58;2.00;;;;;;;14.66;40.81;96498.03;5112951;28;20480;-31
2022/04/05 11:23:00;;;;;;;4.07;1.90;;;;;;;14.58;40.86;96496.81;5113329;28;20111;-31
2022/04/05 11:25:28;;;;;;;3.90;2.15;;;;;;;14.67;40.37;96494.84;5113168;28;20558;-31
2022/04/05 11:27:55;;;;;;;3.75;2.03;;;;;;;14.74;40.41;96493.78;5094864;28;20023;-31
2022/04/05 11:30:21;;;;;;;2.88;1.85;;;;;;;14.80;40.43;96496.69;5114775;28;20106;-30
2022/04/05 11:33:12;;;;;;;3.25;1.85;;;;;;;14.72;40.33;96490.75;5117081;28;20058;-30
2022/04/05 11:35:58;;;;;;;3.13;1.60;;;;;;;14.73;40.49;96498.50;5116883;28;20016;-31